createdAt,value
2022-11-05T00:00:41.356Z,94864.56
2022-11-05T00:03:27.922Z,94862.78
2022-11-05T00:06:13.910Z,94875.69
2022-11-05T00:09:00.443Z,94877.34
2022-11-05T00:11:46.584Z,94886.25
2022-11-05T00:14:32.687Z,94862.56
2022-11-05T00:17:00.067Z,94859.78
2022-11-05T00:19:27.479Z,94841.22
2022-11-05T00:22:13.481Z,94874.09
2022-11-05T00:24:59.358Z,94863.16
2022-11-05T00:27:26.804Z,94833.84
2022-11-05T00:29:54.218Z,94852.84
2022-11-05T00:32:23.517Z,94839.94
2022-11-05T00:34:50.945Z,94827.97
2022-11-05T00:37:18.324Z,94813.31
2022-11-05T00:39:45.760Z,94821.25
2022-11-05T00:42:31.624Z,94809.66
2022-11-05T00:45:01.932Z,94802.38
2022-11-05T00:47:49.050Z,94787.41
2022-11-05T00:50:17.457Z,94769.69
2022-11-05T00:52:57.010Z,94770.53
2022-11-05T00:55:26.320Z,94776.16
2022-11-05T00:57:54.056Z,94759.88
2022-11-05T01:00:23.269Z,94751.44
2022-11-05T01:02:50.797Z,94771.34
2022-11-05T01:05:18.398Z,94778.53
2022-11-05T01:07:45.835Z,94793.75
2022-11-05T01:10:13.457Z,94803.97
2022-11-05T01:12:40.858Z,94815.84
2022-11-05T01:15:08.801Z,94814.84
2022-11-05T01:17:36.258Z,94809.00
2022-11-05T01:20:04.439Z,94806.84
2022-11-05T01:22:31.811Z,94792.28
2022-11-05T01:24:59.465Z,94795.91
2022-11-05T01:27:26.977Z,94783.25
2022-11-05T01:29:54.409Z,94766.94
2022-11-05T01:32:22.075Z,94787.09
2022-11-05T01:34:49.659Z,94760.81
2022-11-05T01:37:17.187Z,94756.47
2022-11-05T01:39:44.583Z,94762.56
2022-11-05T01:42:15.800Z,94747.91
2022-11-05T01:45:03.515Z,94747.66
2022-11-05T01:47:44.820Z,94739.09
2022-11-05T01:50:31.751Z,94721.56
2022-11-05T01:53:25.238Z,94729.00
2022-11-05T01:56:00.986Z,94717.63
2022-11-05T01:58:34.069Z,94710.47
2022-11-05T02:01:02.043Z,94697.69
2022-11-05T02:03:29.722Z,94697.78
2022-11-05T02:05:59.191Z,94684.03
2022-11-05T02:08:57.748Z,94686.56
2022-11-05T02:11:25.691Z,94686.31
2022-11-05T02:13:53.099Z,94688.53
2022-11-05T02:16:29.412Z,94695.88
2022-11-05T02:19:07.525Z,94708.97
2022-11-05T02:22:04.052Z,94702.78
2022-11-05T02:24:59.442Z,94721.22
2022-11-05T02:27:58.848Z,94725.00
2022-11-05T02:30:32.228Z,94730.22
2022-11-05T02:33:14.900Z,94690.88
2022-11-05T02:35:54.511Z,94746.69
2022-11-05T02:38:33.784Z,94745.63
2022-11-05T02:41:30.642Z,94737.25
2022-11-05T02:44:07.091Z,94765.34
2022-11-05T02:46:47.611Z,94757.31
2022-11-05T02:49:35.029Z,94753.25
2022-11-05T02:52:06.917Z,94799.38
2022-11-05T02:54:38.180Z,94799.63
2022-11-05T02:57:05.672Z,94799.53
2022-11-05T02:59:33.459Z,94800.66
2022-11-05T03:02:02.904Z,94814.50
2022-11-05T03:04:32.213Z,94815.94
2022-11-05T03:07:26.395Z,94820.06
2022-11-05T03:10:02.955Z,94821.22
2022-11-05T03:12:59.636Z,94818.63
2022-11-05T03:15:46.857Z,94810.56
2022-11-05T03:18:26.595Z,94820.78
2022-11-05T03:20:59.229Z,94824.31
2022-11-05T03:23:52.899Z,94818.00
2022-11-05T03:26:32.166Z,94811.88
2022-11-05T03:29:02.812Z,94825.81
2022-11-05T03:31:31.010Z,94832.28
2022-11-05T03:33:59.726Z,94845.31
2022-11-05T03:36:41.240Z,94848.47
2022-11-05T03:39:12.235Z,94835.00
2022-11-05T03:41:43.451Z,94848.59
2022-11-05T03:44:13.189Z,94864.06
2022-11-05T03:46:44.293Z,94869.97
2022-11-05T03:49:17.571Z,94857.06
2022-11-05T03:52:20.503Z,94877.81
2022-11-05T03:54:47.808Z,94874.78
2022-11-05T03:57:21.467Z,94882.84
2022-11-05T03:59:50.480Z,94884.63
2022-11-05T04:02:24.078Z,94892.09
2022-11-05T04:04:52.531Z,94892.94
2022-11-05T04:07:39.036Z,94893.75
2022-11-05T04:10:24.972Z,94875.09
2022-11-05T04:13:11.234Z,94869.34
2022-11-05T04:16:01.911Z,94873.47
2022-11-05T04:18:29.431Z,94889.19
2022-11-05T04:21:15.510Z,94873.59
2022-11-05T04:24:01.405Z,94870.66
2022-11-05T04:26:28.905Z,94889.78
2022-11-05T04:29:14.905Z,94911.50
2022-11-05T04:31:42.314Z,94907.00
2022-11-05T04:34:09.719Z,94903.03
2022-11-05T04:36:37.132Z,94920.28
2022-11-05T04:39:04.597Z,94907.59
2022-11-05T04:41:32.024Z,94920.19
2022-11-05T04:43:59.416Z,94931.44
2022-11-05T04:46:26.791Z,94930.97
2022-11-05T04:48:54.319Z,94933.06
2022-11-05T04:51:21.760Z,94930.81
2022-11-05T04:53:49.185Z,94941.41
2022-11-05T04:56:21.471Z,94922.16
2022-11-05T04:58:48.999Z,94919.09
2022-11-05T05:01:18.639Z,94908.44
2022-11-05T05:03:50.639Z,94893.09
2022-11-05T05:06:18.821Z,94893.78
2022-11-05T05:08:50.418Z,94883.13
2022-11-05T05:11:20.581Z,94891.81
2022-11-05T05:13:48.763Z,94894.72
2022-11-05T05:16:24.289Z,94875.03
2022-11-05T05:18:52.301Z,94890.72
2022-11-05T05:21:39.004Z,94896.13
2022-11-05T05:24:09.593Z,94880.19
2022-11-05T05:26:38.402Z,94890.16
2022-11-05T05:29:06.811Z,94867.28
2022-11-05T05:31:34.812Z,94880.44
2022-11-05T05:34:02.363Z,94862.16
2022-11-05T05:36:29.842Z,94896.13
2022-11-05T05:38:57.300Z,94893.81
2022-11-05T05:41:24.807Z,94886.28
2022-11-05T05:43:52.206Z,94888.13
2022-11-05T05:46:19.907Z,94893.75
2022-11-05T05:48:51.493Z,94896.00
2022-11-05T05:51:19.803Z,94904.91
2022-11-05T05:53:47.286Z,94897.25
2022-11-05T05:56:15.332Z,94911.34
2022-11-05T05:58:42.745Z,94903.34
2022-11-05T06:01:18.242Z,94916.28
2022-11-05T06:03:46.210Z,94924.28
2022-11-05T06:06:14.880Z,94918.63
2022-11-05T06:08:42.687Z,94918.41
2022-11-05T06:11:10.262Z,94926.25
2022-11-05T06:13:37.769Z,94926.59
2022-11-05T06:16:07.508Z,94936.34
2022-11-05T06:18:35.318Z,94926.16
2022-11-05T06:21:04.399Z,94925.78
2022-11-05T06:23:32.630Z,94918.78
2022-11-05T06:26:04.319Z,94928.84
2022-11-05T06:28:31.890Z,94908.44
2022-11-05T06:30:59.476Z,94902.56
2022-11-05T06:33:27.146Z,94915.59
2022-11-05T06:35:54.631Z,94920.03
2022-11-05T06:38:22.265Z,94905.25
2022-11-05T06:40:49.696Z,94911.47
2022-11-05T06:43:17.111Z,94905.72
2022-11-05T06:45:44.544Z,94926.13
2022-11-05T06:48:12.002Z,94930.09
2022-11-05T06:50:39.407Z,94925.53
2022-11-05T06:53:06.799Z,94929.25
2022-11-05T06:55:34.406Z,94921.16
2022-11-05T06:58:02.005Z,94910.69
2022-11-05T07:00:29.555Z,94908.44
2022-11-05T07:03:04.183Z,94910.34
2022-11-05T07:05:33.151Z,94912.19
2022-11-05T07:08:00.616Z,94907.59
2022-11-05T07:10:28.078Z,94903.63
2022-11-05T07:12:55.617Z,94917.31
2022-11-05T07:15:23.228Z,94909.22
2022-11-05T07:17:50.731Z,94896.69
2022-11-05T07:20:18.150Z,94913.56
2022-11-05T07:22:45.572Z,94901.13
2022-11-05T07:25:12.966Z,94903.56
2022-11-05T07:27:40.456Z,94911.63
2022-11-05T07:30:09.450Z,94900.47
2022-11-05T07:32:38.575Z,94926.88
2022-11-05T07:35:07.363Z,94915.81
2022-11-05T07:37:48.518Z,94942.00
2022-11-05T07:40:21.017Z,94930.63
2022-11-05T07:42:56.791Z,94943.00
2022-11-05T07:45:25.409Z,94927.66
2022-11-05T07:47:57.829Z,94930.34
2022-11-05T07:50:26.357Z,94940.94
2022-11-05T07:52:53.748Z,94934.88
2022-11-05T07:55:21.213Z,94943.06
2022-11-05T07:57:50.072Z,94940.84
2022-11-05T08:00:21.697Z,94935.03
2022-11-05T08:03:08.447Z,94926.03
2022-11-05T08:05:38.244Z,94932.34
2022-11-05T08:08:07.441Z,94930.44
2022-11-05T08:10:35.556Z,94914.97
2022-11-05T08:13:03.179Z,94921.78
2022-11-05T08:15:30.735Z,94925.47
2022-11-05T08:18:11.122Z,94929.88
2022-11-05T08:20:39.205Z,94922.38
2022-11-05T08:23:06.634Z,94921.38
2022-11-05T08:25:34.323Z,94934.03
2022-11-05T08:28:07.480Z,94922.72
2022-11-05T08:30:35.424Z,94926.16
2022-11-05T08:33:08.690Z,94918.13
2022-11-05T08:35:37.345Z,94925.09
2022-11-05T08:38:06.639Z,94928.63
2022-11-05T08:40:35.400Z,94924.28
2022-11-05T08:43:05.141Z,94931.56
2022-11-05T08:45:33.580Z,94923.44
2022-11-05T08:48:08.502Z,94917.75
2022-11-05T08:50:37.109Z,94910.84
2022-11-05T08:53:05.320Z,94917.19
2022-11-05T08:55:32.813Z,94905.28
2022-11-05T08:58:02.674Z,94911.31
2022-11-05T09:00:32.568Z,94905.34
2022-11-05T09:03:03.389Z,94912.41
2022-11-05T09:05:31.756Z,94916.50
2022-11-05T09:08:05.519Z,94918.38
2022-11-05T09:10:35.653Z,94908.81
2022-11-05T09:13:04.281Z,94911.59
2022-11-05T09:15:32.293Z,94917.00
2022-11-05T09:17:59.911Z,94917.00
2022-11-05T09:20:27.602Z,94904.75
2022-11-05T09:22:55.373Z,94911.66
2022-11-05T09:25:22.999Z,94908.94
2022-11-05T09:27:50.470Z,94904.09
2022-11-05T09:30:17.922Z,94912.09
2022-11-05T09:32:45.658Z,94905.44
2022-11-05T09:35:13.016Z,94897.38
2022-11-05T09:37:40.630Z,94895.78
2022-11-05T09:40:08.410Z,94907.91
2022-11-05T09:42:39.905Z,94893.59
2022-11-05T09:45:15.839Z,94891.84
2022-11-05T09:48:05.945Z,94900.47
2022-11-05T09:50:37.080Z,94892.66
2022-11-05T09:53:05.108Z,94894.03
2022-11-05T09:55:37.002Z,94900.25
2022-11-05T09:58:30.117Z,94900.56
2022-11-05T10:00:58.279Z,94905.53
2022-11-05T10:03:28.296Z,94900.69
2022-11-05T10:06:07.648Z,94885.19
2022-11-05T10:08:40.521Z,94902.38
2022-11-05T10:11:13.923Z,94901.09
2022-11-05T10:13:45.814Z,94870.41
2022-11-05T10:16:35.526Z,94872.66
2022-11-05T10:19:11.816Z,94877.13
2022-11-05T10:22:04.997Z,94857.91
2022-11-05T10:24:27.719Z,94852.25
2022-11-05T10:26:55.743Z,94856.56
2022-11-05T10:29:29.634Z,94850.31
2022-11-05T10:32:01.809Z,94837.31
2022-11-05T10:34:34.858Z,94848.28
2022-11-05T10:37:02.729Z,94845.06
2022-11-05T10:39:31.483Z,94849.19
2022-11-05T10:42:23.478Z,94842.66
2022-11-05T10:45:16.390Z,94840.22
2022-11-05T10:47:53.069Z,94814.69
2022-11-05T10:50:24.742Z,94832.66
2022-11-05T10:52:52.250Z,94834.06
2022-11-05T10:55:36.936Z,94837.88
2022-11-05T10:58:18.259Z,94825.94
2022-11-05T11:01:02.304Z,94822.69
2022-11-05T11:03:39.018Z,94835.25
2022-11-05T11:06:21.077Z,94827.09
2022-11-05T11:08:49.941Z,94835.28
2022-11-05T11:11:34.401Z,94825.22
2022-11-05T11:14:14.151Z,94814.91
2022-11-05T11:16:43.747Z,94820.13
2022-11-05T11:19:20.455Z,94813.59
2022-11-05T11:22:07.816Z,94806.25
2022-11-05T11:24:41.016Z,94792.19
2022-11-05T11:27:15.906Z,94793.50
2022-11-05T11:29:49.395Z,94787.84
2022-11-05T11:32:19.921Z,94767.13
2022-11-05T11:34:51.046Z,94792.41
2022-11-05T11:37:37.283Z,94793.22
2022-11-05T11:40:13.149Z,94782.34
2022-11-05T11:42:41.935Z,94784.81
2022-11-05T11:45:18.160Z,94797.31
2022-11-05T11:47:47.479Z,94792.44
2022-11-05T11:50:41.257Z,94794.31
2022-11-05T11:53:26.630Z,94800.56
2022-11-05T11:56:09.592Z,94794.59
2022-11-05T11:58:45.585Z,94793.50
2022-11-05T12:01:18.206Z,94793.53
2022-11-05T12:03:55.432Z,94790.56
2022-11-05T12:06:29.346Z,94789.19
2022-11-05T12:09:03.530Z,94795.94
2022-11-05T12:11:47.955Z,94786.72
2022-11-05T12:14:50.948Z,94771.38
2022-11-05T12:17:18.338Z,94785.03
2022-11-05T12:20:07.960Z,94787.75
2022-11-05T12:22:50.548Z,94762.13
2022-11-05T12:25:25.855Z,94774.38
2022-11-05T12:28:10.408Z,94771.63
2022-11-05T12:30:54.638Z,94792.25
2022-11-05T12:34:02.486Z,94783.81
2022-11-05T12:36:51.830Z,94782.50
2022-11-05T12:39:22.210Z,94787.91
2022-11-05T12:41:55.291Z,94786.84
2022-11-05T12:44:22.787Z,94776.84
2022-11-05T12:47:12.146Z,94772.47
2022-11-05T12:49:46.484Z,94767.59
2022-11-05T12:52:19.935Z,94784.75
2022-11-05T12:55:09.559Z,94779.31
2022-11-05T12:57:41.036Z,94766.00
2022-11-05T13:00:18.992Z,94764.38
2022-11-05T13:02:46.423Z,94773.66
2022-11-05T13:05:18.266Z,94772.84
2022-11-05T13:08:12.317Z,94770.34
2022-11-05T13:10:44.511Z,94767.94
2022-11-05T13:13:17.706Z,94759.75
2022-11-05T13:15:52.206Z,94756.84
2022-11-05T13:18:28.369Z,94749.50
2022-11-05T13:20:56.610Z,94754.34
2022-11-05T13:23:35.759Z,94752.44
2022-11-05T13:26:07.982Z,94752.97
2022-11-05T13:28:46.904Z,94746.16
2022-11-05T13:31:18.988Z,94740.19
2022-11-05T13:33:48.583Z,94732.34
2022-11-05T13:36:44.780Z,94730.97
2022-11-05T13:39:29.615Z,94722.25
2022-11-05T13:42:28.046Z,94726.06
2022-11-05T13:45:10.690Z,94702.72
2022-11-05T13:47:47.284Z,94720.94
2022-11-05T13:50:23.753Z,94719.03
2022-11-05T13:53:14.413Z,94705.13
2022-11-05T13:56:19.464Z,94723.06
2022-11-05T13:59:10.092Z,94717.63
2022-11-05T14:01:46.865Z,94730.41
2022-11-05T14:04:36.089Z,94730.13
2022-11-05T14:07:31.053Z,94727.94
2022-11-05T14:10:06.137Z,94728.47
2022-11-05T14:12:36.811Z,94724.94
2022-11-05T14:15:20.707Z,94728.19
2022-11-05T14:18:00.488Z,94705.91
2022-11-05T14:20:30.687Z,94706.47
2022-11-05T14:23:37.589Z,94720.53
2022-11-05T14:26:20.326Z,94719.44
2022-11-05T14:29:11.802Z,94720.53
2022-11-05T14:34:44.691Z,94723.16
2022-11-05T14:37:12.607Z,94692.41
2022-11-05T14:39:40.539Z,94701.16
2022-11-05T14:42:24.744Z,94716.06
2022-11-05T14:45:13.562Z,94705.88
2022-11-05T14:47:44.229Z,94725.81
2022-11-05T14:50:18.606Z,94719.81
2022-11-05T14:52:54.668Z,94712.41
2022-11-05T14:55:26.972Z,94715.47
2022-11-05T14:57:54.390Z,94722.94
2022-11-05T15:00:36.738Z,94716.44
2022-11-05T15:03:29.967Z,94718.91
2022-11-05T15:06:08.271Z,94710.50
2022-11-05T15:08:56.364Z,94722.69
2022-11-05T15:11:29.236Z,94717.22
2022-11-05T15:13:56.743Z,94718.94
2022-11-05T15:16:46.114Z,94715.41
2022-11-05T15:19:25.069Z,94719.38
2022-11-05T15:21:54.743Z,94719.69
2022-11-05T15:24:22.912Z,94716.66
2022-11-05T15:27:07.651Z,94723.94
2022-11-05T15:29:35.556Z,94704.38
2022-11-05T15:32:03.327Z,94719.59
2022-11-05T15:34:33.345Z,94717.44
2022-11-05T15:37:09.932Z,94731.50
2022-11-05T15:39:43.058Z,94728.25
2022-11-05T15:42:16.283Z,94727.41
2022-11-05T15:44:49.229Z,94709.91
2022-11-05T15:47:25.271Z,94720.00
2022-11-05T15:49:57.253Z,94727.66
2022-11-05T15:52:33.525Z,94728.94
2022-11-05T15:55:13.352Z,94740.03
2022-11-05T15:57:51.198Z,94732.97
2022-11-05T16:00:25.709Z,94735.13
2022-11-05T16:02:57.624Z,94744.69
2022-11-05T16:05:31.837Z,94731.25
2022-11-05T16:08:00.417Z,94747.34
2022-11-05T16:10:33.988Z,94751.38
2022-11-05T16:13:37.399Z,94760.69
2022-11-05T16:16:14.234Z,94752.94
2022-11-05T16:18:42.900Z,94749.13
2022-11-05T16:21:17.951Z,94743.19
2022-11-05T16:23:48.549Z,94764.66
2022-11-05T16:29:34.628Z,94740.78
2022-11-05T16:32:06.094Z,94743.72
2022-11-05T16:34:36.576Z,94758.66
2022-11-05T16:38:16.384Z,94762.13
2022-11-05T16:40:55.001Z,94761.88
2022-11-05T16:43:57.838Z,94759.13
2022-11-05T16:49:33.885Z,94760.50
2022-11-05T16:52:01.375Z,94760.25
2022-11-05T16:54:28.708Z,94771.34
2022-11-05T16:56:56.241Z,94777.03
2022-11-05T16:59:23.635Z,94778.47
2022-11-05T17:01:55.592Z,94772.97
2022-11-05T17:04:23.454Z,94746.72
2022-11-05T17:06:51.048Z,94783.84
2022-11-05T17:09:18.498Z,94780.53
2022-11-05T17:11:45.929Z,94770.38
2022-11-05T17:14:14.329Z,94772.59
2022-11-05T17:16:41.998Z,94774.06
2022-11-05T17:19:17.426Z,94780.72
2022-11-05T17:21:45.624Z,94795.47
2022-11-05T17:24:13.571Z,94797.03
2022-11-05T17:26:41.591Z,94786.53
2022-11-05T17:29:09.626Z,94810.19
2022-11-05T17:31:40.692Z,94794.06
2022-11-05T17:34:09.872Z,94813.94
2022-11-05T17:36:37.666Z,94799.25
2022-11-05T17:39:05.394Z,94798.13
2022-11-05T17:41:33.315Z,94817.44
2022-11-05T17:44:01.278Z,94823.63
2022-11-05T17:46:28.980Z,94799.19
2022-11-05T17:48:57.276Z,94807.25
2022-11-05T17:51:25.026Z,94835.28
2022-11-05T17:53:53.017Z,94814.47
2022-11-05T17:56:32.561Z,94810.19
2022-11-05T17:59:02.839Z,94822.75
2022-11-05T18:01:33.062Z,94795.41
2022-11-05T18:04:07.204Z,94833.06
2022-11-05T18:06:40.976Z,94821.22
2022-11-05T18:09:09.962Z,94833.44
2022-11-05T18:11:40.536Z,94839.97
2022-11-05T18:14:08.654Z,94837.81
2022-11-05T18:16:36.892Z,94826.91
2022-11-05T18:19:05.184Z,94835.09
2022-11-05T18:21:33.188Z,94825.72
2022-11-05T18:24:05.819Z,94825.50
2022-11-05T18:26:34.598Z,94805.09
2022-11-05T18:29:05.055Z,94822.31
2022-11-05T18:31:32.832Z,94817.06
2022-11-05T18:34:01.021Z,94814.41
2022-11-05T18:36:30.685Z,94798.59
2022-11-05T18:39:00.646Z,94803.38
2022-11-05T18:41:28.504Z,94812.13
2022-11-05T18:44:00.709Z,94810.72
2022-11-05T18:46:56.509Z,94775.53
2022-11-05T18:49:17.538Z,94805.00
2022-11-05T18:51:45.374Z,94811.00
2022-11-05T18:54:13.179Z,94808.28
2022-11-05T18:56:45.509Z,94779.69
2022-11-05T18:59:35.784Z,94784.09
2022-11-05T19:02:03.306Z,94769.19
2022-11-05T19:04:31.205Z,94777.81
2022-11-05T19:07:04.368Z,94772.06
2022-11-05T19:09:37.849Z,94778.56
2022-11-05T19:12:07.211Z,94785.66
2022-11-05T19:14:35.569Z,94789.72
2022-11-05T19:17:04.403Z,94775.84
2022-11-05T19:19:32.420Z,94784.56
2022-11-05T19:22:00.154Z,94789.72
2022-11-05T19:24:27.983Z,94794.03
2022-11-05T19:26:56.002Z,94796.91
2022-11-05T19:29:23.952Z,94808.81
2022-11-05T19:31:51.766Z,94820.72
2022-11-05T19:34:20.782Z,94813.94
2022-11-05T19:36:48.464Z,94824.25
2022-11-05T19:39:16.129Z,94829.50
2022-11-05T19:41:44.021Z,94823.44
2022-11-05T19:44:11.900Z,94825.47
2022-11-05T19:46:39.743Z,94831.00
2022-11-05T19:49:07.310Z,94834.19
2022-11-05T19:51:35.312Z,94840.19
2022-11-05T19:54:04.128Z,94831.56
2022-11-05T19:56:33.887Z,94846.97
2022-11-05T19:59:03.432Z,94847.03
2022-11-05T20:01:31.666Z,94860.50
2022-11-05T20:04:02.560Z,94875.75
2022-11-05T20:06:33.572Z,94861.16
2022-11-05T20:09:21.005Z,94869.22
2022-11-05T20:11:50.151Z,94842.00
2022-11-05T20:14:18.069Z,94865.75
2022-11-05T20:16:46.897Z,94865.50
2022-11-05T20:19:17.647Z,94868.47
2022-11-05T20:21:45.920Z,94861.66
2022-11-05T20:24:20.561Z,94867.47
2022-11-05T20:26:52.776Z,94868.00
2022-11-05T20:29:21.301Z,94878.03
2022-11-05T20:31:49.757Z,94866.66
2022-11-05T20:34:17.527Z,94872.59
2022-11-05T20:36:45.442Z,94860.41
2022-11-05T20:39:13.322Z,94862.38
2022-11-05T20:41:41.288Z,94850.75
2022-11-05T20:44:09.192Z,94869.91
2022-11-05T20:46:37.133Z,94847.31
2022-11-05T20:49:05.043Z,94872.13
2022-11-05T20:51:32.735Z,94861.66
2022-11-05T20:54:01.371Z,94809.91
2022-11-05T20:56:31.490Z,94862.59
2022-11-05T20:59:00.600Z,94867.72
2022-11-05T21:01:31.250Z,94836.03
2022-11-05T21:04:00.020Z,94857.13
2022-11-05T21:06:28.085Z,94867.75
2022-11-05T21:08:56.209Z,94860.31
2022-11-05T21:11:24.170Z,94870.25
2022-11-05T21:13:52.199Z,94849.06
2022-11-05T21:16:20.695Z,94874.84
2022-11-05T21:18:48.824Z,94872.75
2022-11-05T21:21:19.359Z,94879.53
2022-11-05T21:23:47.873Z,94867.88
2022-11-05T21:26:17.856Z,94879.19
2022-11-05T21:28:46.052Z,94892.31
2022-11-05T21:31:14.079Z,94887.16
2022-11-05T21:33:42.354Z,94899.34
2022-11-05T21:36:12.552Z,94891.22
2022-11-05T21:38:43.611Z,94892.06
2022-11-05T21:41:12.781Z,94888.22
2022-11-05T21:43:41.834Z,94884.63
2022-11-05T21:46:11.576Z,94874.09
2022-11-05T21:48:39.986Z,94882.88
2022-11-05T21:51:26.053Z,94876.06
2022-11-05T21:54:12.302Z,94884.72
2022-11-05T21:56:59.219Z,94897.09
2022-11-05T21:59:45.337Z,94889.28
2022-11-05T22:02:15.341Z,94899.53
2022-11-05T22:04:48.980Z,94907.19
2022-11-05T22:07:18.957Z,94898.88
2022-11-05T22:09:46.867Z,94893.88
2022-11-05T22:12:15.229Z,94875.13
2022-11-05T22:14:42.929Z,94902.97
2022-11-05T22:17:10.933Z,94902.13
2022-11-05T22:19:38.839Z,94886.16
2022-11-05T22:22:07.043Z,94885.88
2022-11-05T22:24:35.729Z,94884.59
2022-11-05T22:27:08.635Z,94881.38
2022-11-05T22:29:37.254Z,94878.16
2022-11-05T22:32:05.519Z,94882.00
2022-11-05T22:34:33.398Z,94876.84
2022-11-05T22:37:01.098Z,94883.13
2022-11-05T22:39:28.890Z,94874.69
2022-11-05T22:41:57.691Z,94881.75
2022-11-05T22:44:26.591Z,94868.13
2022-11-05T22:46:54.690Z,94880.31
2022-11-05T22:49:22.258Z,94868.72
2022-11-05T22:51:49.687Z,94891.53
2022-11-05T22:54:17.615Z,94864.56
2022-11-05T22:56:45.235Z,94883.88
2022-11-05T22:59:15.278Z,94894.22
2022-11-05T23:01:44.538Z,94881.44
2022-11-05T23:04:13.278Z,94889.50
2022-11-05T23:06:59.870Z,94903.84
2022-11-05T23:09:48.871Z,94859.59
2022-11-05T23:12:29.697Z,94911.50
2022-11-05T23:14:58.858Z,94890.88
2022-11-05T23:17:45.351Z,94882.34
2022-11-05T23:20:40.058Z,94902.13
2022-11-05T23:23:30.203Z,94911.94
2022-11-05T23:25:58.803Z,94913.63
2022-11-05T23:28:26.629Z,94880.88
2022-11-05T23:31:12.615Z,94912.25
2022-11-05T23:33:40.146Z,94916.25
2022-11-05T23:36:31.073Z,94911.50
2022-11-05T23:38:58.448Z,94907.25
2022-11-05T23:41:44.287Z,94914.38
2022-11-05T23:44:30.279Z,94914.50
2022-11-05T23:47:16.195Z,94934.25
2022-11-05T23:49:43.749Z,94922.72
2022-11-05T23:52:11.178Z,94917.31
2022-11-05T23:54:38.609Z,94924.63
2022-11-05T23:57:05.989Z,94923.09
2022-11-05T23:59:33.429Z,94940.59
